Flight Track Log - Related Links

Times and Time Zones

All times are in EDT time to prevent confusion due to time zone crossing. See the CTL309 flight status page for this flight to view local times or setup timezone preferences in your user account.

Time Position Orientation Groundspeed Altitude Reporting Facility
EDT Latitude Longitude Course Direction KTS MPH feet Rate Location/Type
Tue 08:54:40 PM 41.5147 -81.6981 319° Northwest 112 129 800  Level Cleveland Center
Tue 08:55:53 PM 41.5436 -81.7317 319° Northwest 129 148 2,400 1,119 Climbing Cleveland Center
Tue 08:56:54 PM 41.5267 -81.7647 236° Southwest 103 119 3,300 793 Climbing Cleveland Center
Tue 08:57:54 PM 41.5075 -81.8003 234° Southwest 121 139 4,000 567 Climbing Cleveland Center
Tue 08:59:01 PM 41.4758 -81.8358 220° Southwest 130 150 4,500 520 Climbing Cleveland Center
Tue 09:00:01 PM 41.4483 -81.8603 214° Southwest 130 150 5,100 793 Climbing Cleveland Center
Tue 09:01:02 PM 41.4272 -81.8792 214° Southwest 93 107 6,100 469 Climbing Cleveland Center
Tue 09:02:09 PM 41.3936 -81.9117 216° Southwest 138 159 6,100 -47 Level Cleveland Center
Tue 09:03:09 PM 41.3619 -81.9414 215° Southwest 137 158 6,000  Descending Cleveland Center
Tue 09:04:22 PM 41.3261 -81.9794 219° Southwest 136 157 6,100 49 Climbing Cleveland Center
Tue 09:05:11 PM 41.3028 -82.0011 215° Southwest 135 155 6,100  Level Cleveland Center
Tue 09:06:17 PM 41.2669 -82.0361 216° Southwest 137 158 6,100  Level Cleveland Center
Tue 09:07:12 PM 41.2394 -82.0633 217° Southwest 134 154 6,100  Level Cleveland Center
Tue 09:08:13 PM 41.2078 -82.0928 215° Southwest 142 163 6,100  Level Cleveland Center
Tue 09:09:13 PM 41.1742 -82.1225 214° Southwest 145 167 6,100  Level Cleveland Center
Tue 09:11:36 PM 41.1003 -82.1842 212° Southwest 143 165 6,100 -29 Level Indianapolis Center
Tue 09:12:37 PM 41.0683 -82.2147 216° Southwest 142 163 6,000 -49 Descending Indianapolis Center
Tue 09:13:38 PM 41.0358 -82.2472 217° Southwest 144 166 6,000  Level Indianapolis Center
Tue 09:14:40 PM 41.0028 -82.2753 213° Southwest 141 162 6,000  Level Indianapolis Center
Tue 09:15:41 PM 40.9694 -82.3078 216° Southwest 145 167 6,000 49 Level Indianapolis Center
Tue 09:16:42 PM 40.9367 -82.3378 215° Southwest 143 165 6,100  Climbing Indianapolis Center
Tue 09:17:43 PM 40.9022 -82.3683 214° Southwest 147 169 6,000  Descending Indianapolis Center
Tue 09:18:45 PM 40.8681 -82.3997 215° Southwest 148 170 6,100 49 Climbing Indianapolis Center
Tue 09:19:46 PM 40.8286 -82.4356 215° Southwest 147 169 6,100  Level Indianapolis Center
Tue 09:20:47 PM 40.7953 -82.4631 212° Southwest 143 165 6,100 -49 Level Indianapolis Center
Tue 09:21:48 PM 40.7608 -82.4925 213° Southwest 145 167 6,000 -49 Descending Indianapolis Center
Tue 09:22:49 PM 40.7272 -82.5225 214° Southwest 145 167 6,000 49 Level Indianapolis Center
Tue 09:23:51 PM 40.6950 -82.5503 213° Southwest 139 160 6,100  Climbing Indianapolis Center
Tue 09:24:52 PM 40.6617 -82.5803 214° Southwest 142 163 6,000 -49 Descending Indianapolis Center
Tue 09:25:53 PM 40.6286 -82.6078 212° Southwest 140 161 6,000  Level Indianapolis Center
Tue 09:26:54 PM 40.5969 -82.6350 213° Southwest 136 157 6,000 -49 Level Indianapolis Center
Tue 09:27:56 PM 40.5650 -82.6656 216° Southwest 139 160 5,900 49 Descending Indianapolis Center
Tue 09:28:57 PM 40.5342 -82.6956 216° Southwest 137 158 6,100 49 Climbing Indianapolis Center
Tue 09:29:58 PM 40.5019 -82.7244 214° Southwest 138 159 6,000 -54 Descending Indianapolis Center
Tue 09:30:48 PM 40.4733 -82.7533 218° Southwest 138 159 6,000 -216 Level Indianapolis Center
Tue 09:31:49 PM 40.4403 -82.7797 211° Southwest 139 160 5,600 -386 Descending Indianapolis Center
Tue 09:33:08 PM 40.3936 -82.8181 212° Southwest 150 173 5,100 -586 Descending Indianapolis Center
Tue 09:34:02 PM 40.3606 -82.8472 214° Southwest 153 176 4,300 -821 Descending Indianapolis Center
Tue 09:35:05 PM 40.3239 -82.8744 210° Southwest 157 181 3,500 -609 Descending Indianapolis Center
Tue 09:36:10 PM 40.2831 -82.9094 213° Southwest 160 184 3,000 -303 Descending Indianapolis Center
Tue 09:37:04 PM 40.2500 -82.9358 211° Southwest 148 170 2,900 -248 Descending Indianapolis Center
Tue 09:38:11 PM 40.2097 -82.9722 215° Southwest 152 175 2,500 -246 Descending Indianapolis Center
Tue 09:39:06 PM 40.1767 -82.9956 208° Southwest 151 174 2,400 -300 Descending Indianapolis Center
Tue 09:40:11 PM 40.1408 -83.0194 207° Southwest 151 174 1,900 -429 Descending Indianapolis Center
Tue 09:41:12 PM 40.1033 -83.0378 201° Southwest 147 169 1,500 -390 Descending Indianapolis Center
Tue 09:42:14 PM 40.0794 -83.0528 206° Southwest 112 129 1,100 -387 Descending Indianapolis Center

Login

Don't have an account? Register now (free) for customized features, flight alerts, and more!